Time;durP1;ratioP1;P1;durP2;ratioP2;P2;SDS_P1;SDS_P2;PMS_P1;PMS_P2;Temp;Humidity;BMP_temperature;BMP_pressure;BME280_temperature;BME280_humidity;BME280_pressure;Samples;Min_cycle;Max_cycle;Signal;HPM_P1;HPM_P2
2023/06/14 00:01:05;;;;;;;14.70;13.80;;;15.60;82.60;;;;;;4950277;28;20453;-74
2023/06/14 00:03:32;;;;;;;15.77;14.47;;;15.60;82.50;;;;;;4950503;28;20460;-74
2023/06/14 00:05:59;;;;;;;15.33;14.43;;;15.60;82.80;;;;;;4950379;28;20492;-74
2023/06/14 00:08:26;;;;;;;15.70;14.60;;;15.60;83.80;;;;;;4950283;28;20471;-74
2023/06/14 00:10:53;;;;;;;17.43;16.10;;;15.60;84.70;;;;;;4953859;28;20534;-75
2023/06/14 00:13:20;;;;;;;16.50;15.40;;;15.50;85.50;;;;;;4953729;28;20551;-74
2023/06/14 00:15:48;;;;;;;15.97;14.80;;;15.50;85.80;;;;;;4953644;28;20511;-75
2023/06/14 00:18:16;;;;;;;14.63;13.63;;;15.40;86.20;;;;;;4953722;28;20527;-75
2023/06/14 00:20:43;;;;;;;16.00;15.10;;;15.30;86.30;;;;;;4953966;28;20457;-74
2023/06/14 00:23:10;;;;;;;17.13;15.63;;;15.30;87.40;;;;;;4954054;28;20448;-74
2023/06/14 00:25:36;;;;;;;16.10;14.93;;;15.20;88.00;;;;;;4954050;28;20468;-74
2023/06/14 00:28:03;;;;;;;16.80;15.70;;;15.10;89.30;;;;;;4953596;28;20468;-74
2023/06/14 00:30:30;;;;;;;16.93;15.43;;;15.00;90.10;;;;;;4953739;28;20465;-74
2023/06/14 00:32:58;;;;;;;16.00;14.90;;;14.90;90.70;;;;;;4953637;28;20499;-74
2023/06/14 00:35:25;;;;;;;15.63;14.43;;;14.90;90.80;;;;;;4953764;28;20456;-74
2023/06/14 00:37:51;;;;;;;16.37;15.33;;;14.80;91.20;;;;;;4953930;28;20460;-76
2023/06/14 00:40:18;;;;;;;15.87;14.77;;;14.90;91.60;;;;;;4954030;28;20479;-75
2023/06/14 00:42:45;;;;;;;15.67;14.20;;;14.90;91.60;;;;;;4953771;28;20456;-74
2023/06/14 00:45:12;;;;;;;16.17;15.17;;;14.80;91.80;;;;;;4953805;28;20459;-74
2023/06/14 00:47:39;;;;;;;16.73;15.63;;;14.70;92.20;;;;;;4953410;28;20448;-74
2023/06/14 00:50:09;;;;;;;16.87;15.67;;;14.60;92.70;;;;;;4953193;28;20473;-74
2023/06/14 00:52:36;;;;;;;17.07;16.00;;;14.50;93.30;;;;;;4952971;28;20503;-74
2023/06/14 00:55:04;;;;;;;15.80;14.80;;;14.30;94.10;;;;;;4953322;28;20851;-74
2023/06/14 00:57:30;;;;;;;17.77;16.30;;;14.30;96.30;;;;;;4953338;28;20464;-74
2023/06/14 00:59:57;;;;;;;17.23;16.10;;;14.40;97.00;;;;;;4953004;28;20947;-75
2023/06/14 01:02:25;;;;;;;16.87;15.77;;;14.40;97.30;;;;;;4953177;28;20464;-74
2023/06/14 01:04:52;;;;;;;17.47;16.17;;;14.60;97.70;;;;;;4952998;28;20648;-75
2023/06/14 01:07:30;;;;;;;17.20;15.90;;;14.70;98.30;;;;;;4952830;28;20462;-74
2023/06/14 01:10:13;;;;;;;17.37;15.97;;;14.00;99.00;;;;;;4952739;28;20468;-75
2023/06/14 01:12:48;;;;;;;16.60;15.47;;;13.90;97.40;;;;;;4952694;28;20492;-75
2023/06/14 01:15:16;;;;;;;17.40;16.20;;;14.40;99.90;;;;;;4952952;28;20463;-75
2023/06/14 01:17:46;;;;;;;18.47;17.30;;;14.00;99.90;;;;;;4952868;28;20460;-77
2023/06/14 01:23:36;;;;;;;19.97;18.13;;;13.80;99.90;;;;;;4952933;29;20792;-75
2023/06/14 01:26:04;;;;;;;20.30;19.00;;;13.80;99.90;;;;;;4952465;28;20520;-75
2023/06/14 01:28:33;;;;;;;19.23;17.73;;;13.60;99.90;;;;;;4952680;28;20468;-75
2023/06/14 01:31:04;;;;;;;17.93;16.47;;;13.60;99.90;;;;;;4952774;28;20467;-75
2023/06/14 01:33:33;;;;;;;19.03;17.20;;;13.70;99.90;;;;;;4952606;28;20548;-75
2023/06/14 01:36:02;;;;;;;19.97;18.17;;;13.60;99.90;;;;;;4952559;28;20456;-75
2023/06/14 01:38:31;;;;;;;18.77;17.27;;;13.50;99.90;;;;;;4952309;28;20959;-75
2023/06/14 01:41:00;;;;;;;19.07;17.57;;;13.50;99.90;;;;;;4952320;28;20487;-75
2023/06/14 01:43:28;;;;;;;19.80;18.10;;;13.60;99.90;;;;;;4952070;28;20551;-76
2023/06/14 01:45:56;;;;;;;18.20;16.80;;;13.70;99.90;;;;;;4952218;28;20515;-75
2023/06/14 01:48:23;;;;;;;20.00;18.40;;;13.30;99.90;;;;;;4952350;28;20545;-75
2023/06/14 01:50:50;;;;;;;18.80;17.30;;;13.80;99.90;;;;;;4951933;28;20488;-75
2023/06/14 01:53:17;;;;;;;18.23;17.03;;;13.40;99.90;;;;;;4951861;28;20528;-75
2023/06/14 01:55:44;;;;;;;19.03;17.67;;;12.40;99.90;;;;;;4952220;28;20813;-75
2023/06/14 01:58:13;;;;;;;19.27;17.73;;;13.90;99.90;;;;;;4952121;28;20544;-75
2023/06/14 02:00:40;;;;;;;20.27;18.93;;;13.20;99.90;;;;;;4952400;28;20491;-75
2023/06/14 02:03:06;;;;;;;19.80;18.10;;;13.30;99.90;;;;;;4952049;28;20457;-76
2023/06/14 02:05:34;;;;;;;19.30;18.00;;;13.30;99.90;;;;;;4951916;28;20515;-76
2023/06/14 02:08:01;;;;;;;20.90;19.30;;;13.20;99.90;;;;;;4951758;28;20460;-76
2023/06/14 02:10:27;;;;;;;21.37;19.67;;;13.20;99.90;;;;;;4951635;28;20468;-75
2023/06/14 02:12:54;;;;;;;20.17;18.77;;;12.80;99.90;;;;;;4951872;28;20547;-76
2023/06/14 02:15:23;;;;;;;18.87;17.50;;;13.00;99.90;;;;;;4951621;28;20456;-76
2023/06/14 02:17:50;;;;;;;19.67;18.17;;;13.00;99.90;;;;;;4951696;28;20457;-75
2023/06/14 02:20:17;;;;;;;21.33;19.80;;;13.20;99.90;;;;;;4951928;28;20464;-77
2023/06/14 02:22:44;;;;;;;20.47;19.13;;;12.80;99.90;;;;;;4951619;28;20535;-75
2023/06/14 02:25:11;;;;;;;19.20;17.70;;;13.20;99.90;;;;;;4951427;28;20468;-74
2023/06/14 02:27:38;;;;;;;20.53;19.13;;;12.90;99.90;;;;;;4951614;28;20453;-74
2023/06/14 02:30:06;;;;;;;19.20;17.90;;;13.00;99.90;;;;;;4951430;28;20471;-74
2023/06/14 02:32:35;;;;;;;20.20;18.67;;;12.60;99.90;;;;;;4950935;28;20555;-74
2023/06/14 02:35:02;;;;;;;20.30;18.87;;;12.60;99.90;;;;;;4951478;28;20460;-75
2023/06/14 02:37:28;;;;;;;19.10;17.60;;;12.70;99.90;;;;;;4951334;28;20465;-74
2023/06/14 02:39:57;;;;;;;20.37;19.00;;;12.60;99.90;;;;;;4951306;28;20445;-76
2023/06/14 02:42:23;;;;;;;20.40;18.90;;;12.60;99.90;;;;;;4951246;28;20484;-76
2023/06/14 02:44:51;;;;;;;20.67;18.93;;;12.50;99.90;;;;;;4951246;28;20456;-75
2023/06/14 02:47:17;;;;;;;19.37;17.57;;;12.50;99.90;;;;;;4951063;28;20571;-75
2023/06/14 02:49:46;;;;;;;18.60;16.90;;;12.70;99.90;;;;;;4951029;28;20493;-76
2023/06/14 02:52:13;;;;;;;20.10;18.70;;;13.00;99.90;;;;;;4950996;28;20584;-75
2023/06/14 02:54:40;;;;;;;18.77;17.47;;;12.90;99.90;;;;;;4951184;28;20923;-75
2023/06/14 02:57:06;;;;;;;19.60;17.80;;;12.60;99.90;;;;;;4950999;28;20456;-75
2023/06/14 02:59:33;;;;;;;19.10;17.33;;;12.70;99.90;;;;;;4951108;28;20912;-75
2023/06/14 03:02:00;;;;;;;18.63;17.30;;;12.80;99.90;;;;;;4951127;28;20457;-74
2023/06/14 03:04:26;;;;;;;19.73;18.30;;;12.60;99.90;;;;;;4951223;28;20463;-79
2023/06/14 03:06:55;;;;;;;19.97;18.57;;;12.50;99.90;;;;;;4951051;28;20819;-76
2023/06/14 03:09:21;;;;;;;18.00;16.60;;;12.50;99.90;;;;;;4951063;28;20448;-75
2023/06/14 03:11:48;;;;;;;18.43;17.23;;;12.90;99.90;;;;;;4950888;28;20461;-75
2023/06/14 03:14:17;;;;;;;19.17;17.70;;;12.50;99.90;;;;;;4950946;28;20489;-76
2023/06/14 03:16:44;;;;;;;18.40;17.00;;;12.80;99.90;;;;;;4950989;28;21023;-76
2023/06/14 03:19:10;;;;;;;19.90;18.50;;;12.80;99.90;;;;;;4950952;28;20456;-75
2023/06/14 03:21:38;;;;;;;18.50;16.73;;;12.70;99.90;;;;;;4950866;28;20452;-74
2023/06/14 03:24:07;;;;;;;19.10;17.90;;;13.00;99.90;;;;;;4951145;28;21014;-74
2023/06/14 03:26:34;;;;;;;19.73;18.33;;;12.40;99.90;;;;;;4951012;28;20823;-76
2023/06/14 03:29:00;;;;;;;20.00;18.50;;;12.90;99.90;;;;;;4951266;28;20452;-76
2023/06/14 03:31:32;;;;;;;20.87;19.30;;;12.50;99.90;;;;;;4950850;28;20456;-74
2023/06/14 03:33:59;;;;;;;19.97;18.40;;;12.40;99.90;;;;;;4950953;28;20960;-74
2023/06/14 03:36:26;;;;;;;19.23;17.77;;;12.50;99.90;;;;;;4951047;28;20471;-74
2023/06/14 03:38:52;;;;;;;19.00;17.60;;;12.50;99.90;;;;;;4951059;28;20456;-74
2023/06/14 03:41:20;;;;;;;18.80;17.53;;;12.90;99.90;;;;;;4950915;28;20464;-75
2023/06/14 03:43:47;;;;;;;19.53;17.93;;;12.70;99.90;;;;;;4951192;28;20445;-75
2023/06/14 03:46:14;;;;;;;19.60;18.10;;;12.70;99.90;;;;;;4954585;28;20523;-74
2023/06/14 03:48:40;;;;;;;23.03;19.63;;;13.00;99.90;;;;;;4954434;28;20478;-75
2023/06/14 03:51:07;;;;;;;18.97;17.23;;;12.80;99.90;;;;;;4954093;28;20491;-74
2023/06/14 03:53:35;;;;;;;20.60;19.00;;;12.80;99.90;;;;;;4954460;28;20702;-75
2023/06/14 03:56:02;;;;;;;19.53;18.30;;;12.50;99.90;;;;;;4953894;28;20470;-74
2023/06/14 03:58:30;;;;;;;25.20;22.70;;;12.50;99.90;;;;;;4954097;28;20456;-74
2023/06/14 04:00:57;;;;;;;23.80;21.43;;;12.60;99.90;;;;;;4954158;28;20468;-74
2023/06/14 04:03:24;;;;;;;18.40;17.23;;;12.60;99.90;;;;;;4954030;28;20502;-75
2023/06/14 04:05:56;;;;;;;20.37;18.90;;;13.00;99.90;;;;;;4954009;28;20914;-74
2023/06/14 04:08:24;;;;;;;19.63;18.37;;;12.80;99.90;;;;;;4954074;28;20551;-75
2023/06/14 04:10:51;;;;;;;18.20;16.90;;;13.00;99.90;;;;;;4954057;28;20456;-75
2023/06/14 04:13:17;;;;;;;19.10;17.90;;;12.90;99.90;;;;;;4954037;28;20488;-75
2023/06/14 04:15:46;;;;;;;20.07;18.47;;;13.10;99.90;;;;;;4953958;28;21001;-75
2023/06/14 04:18:13;;;;;;;18.10;16.87;;;12.90;99.90;;;;;;4954027;28;20484;-75
2023/06/14 04:20:40;;;;;;;19.13;17.73;;;13.30;99.90;;;;;;4954406;28;20464;-75
2023/06/14 04:23:14;;;;;;;20.43;18.43;;;13.30;99.90;;;;;;4954788;28;20827;-74
2023/06/14 04:25:45;;;;;;;20.50;18.53;;;13.90;99.90;;;;;;4955153;28;20456;-73
2023/06/14 04:28:12;;;;;;;24.40;19.30;;;14.60;99.90;;;;;;4955349;28;20464;-73
2023/06/14 04:30:40;;;;;;;19.90;18.23;;;15.40;99.90;;;;;;4954776;28;20869;-73
2023/06/14 04:33:09;;;;;;;20.13;18.30;;;16.00;99.90;;;;;;4954764;28;20547;-74
2023/06/14 04:35:37;;;;;;;19.60;18.30;;;16.50;99.90;;;;;;4954879;28;20566;-73
2023/06/14 04:38:08;;;;;;;20.70;18.83;;;16.70;99.90;;;;;;4954836;28;20911;-74
2023/06/14 04:40:36;;;;;;;19.60;17.70;;;17.20;99.90;;;;;;4955024;28;20555;-74
2023/06/14 04:43:04;;;;;;;20.60;18.77;;;17.50;99.80;;;;;;4954706;28;20465;-74
2023/06/14 04:45:32;;;;;;;18.00;16.60;;;17.70;98.70;;;;;;4954535;28;20484;-74
2023/06/14 04:47:59;;;;;;;18.50;17.20;;;18.30;98.30;;;;;;4954560;28;20507;-74
2023/06/14 04:50:29;;;;;;;19.00;17.70;;;18.90;97.20;;;;;;4954268;28;20560;-74
2023/06/14 04:52:56;;;;;;;18.20;16.93;;;19.20;95.80;;;;;;4954593;28;20456;-74
2023/06/14 04:55:24;;;;;;;18.20;16.87;;;19.60;95.50;;;;;;4954349;28;20487;-74
2023/06/14 04:57:52;;;;;;;17.83;16.73;;;19.90;93.40;;;;;;4954431;28;20963;-74
2023/06/14 05:00:20;;;;;;;15.83;15.03;;;20.30;92.50;;;;;;4954362;28;20452;-74
2023/06/14 05:02:49;;;;;;;20.07;18.67;;;20.10;92.30;;;;;;4954480;28;20456;-73
2023/06/14 05:05:15;;;;;;;18.77;17.70;;;20.30;92.70;;;;;;4954629;28;20500;-74
2023/06/14 05:07:43;;;;;;;16.93;16.03;;;20.60;91.60;;;;;;4954346;28;20533;-74
2023/06/14 05:10:10;;;;;;;18.27;16.97;;;21.50;90.70;;;;;;4954310;28;20507;-74
2023/06/14 05:12:37;;;;;;;17.70;16.40;;;20.50;90.20;;;;;;4954374;28;20480;-74
2023/06/14 05:15:04;;;;;;;18.43;17.13;;;20.50;90.80;;;;;;4954016;28;21081;-74
2023/06/14 05:17:31;;;;;;;16.73;15.80;;;20.60;89.60;;;;;;4954188;28;20453;-74
2023/06/14 05:19:58;;;;;;;18.03;16.97;;;20.80;88.90;;;;;;4954137;28;20456;-74
2023/06/14 05:22:25;;;;;;;17.67;16.67;;;20.90;88.20;;;;;;4954116;28;20472;-74
2023/06/14 05:24:53;;;;;;;18.27;17.07;;;20.80;89.20;;;;;;4953867;28;20452;-74
2023/06/14 05:27:19;;;;;;;18.53;17.10;;;20.90;88.30;;;;;;4954165;28;20576;-75
2023/06/14 05:29:46;;;;;;;19.57;18.37;;;21.30;87.60;;;;;;4953909;28;20452;-75
2023/06/14 05:32:13;;;;;;;18.13;16.83;;;21.60;84.90;;;;;;4953888;28;20934;-72
2023/06/14 05:34:39;;;;;;;18.30;16.93;;;21.90;83.50;;;;;;4953689;28;20488;-74
2023/06/14 05:37:06;;;;;;;18.30;17.20;;;22.40;80.50;;;;;;4953529;28;20456;-75
2023/06/14 05:39:34;;;;;;;17.30;16.10;;;22.50;77.30;;;;;;4953758;28;20456;-76
2023/06/14 05:42:02;;;;;;;17.10;15.97;;;22.20;78.00;;;;;;4953842;28;20456;-76
2023/06/14 05:44:28;;;;;;;17.50;16.17;;;22.60;78.00;;;;;;4935910;28;20460;-76
2023/06/14 05:46:55;;;;;;;17.23;15.90;;;23.00;75.30;;;;;;4934579;29;20452;-76
2023/06/14 05:49:22;;;;;;;18.13;16.80;;;23.30;74.60;;;;;;4934419;29;20556;-76
2023/06/14 05:51:48;;;;;;;18.30;17.07;;;23.30;73.80;;;;;;4934519;29;20494;-76
2023/06/14 05:54:15;;;;;;;17.90;16.97;;;23.50;73.50;;;;;;4934660;29;20486;-76
2023/06/14 05:56:42;;;;;;;17.20;16.10;;;23.90;72.10;;;;;;4934423;29;20457;-76
2023/06/14 05:59:10;;;;;;;17.33;16.53;;;23.80;70.00;;;;;;4934489;29;20505;-76
2023/06/14 06:01:37;;;;;;;18.57;16.97;;;24.30;71.50;;;;;;4934174;29;20473;-76
2023/06/14 06:04:04;;;;;;;17.27;16.27;;;24.40;68.90;;;;;;4934460;29;20453;-76
2023/06/14 06:06:30;;;;;;;17.37;16.37;;;24.10;69.60;;;;;;4933717;29;20983;-76
2023/06/14 06:08:57;;;;;;;17.00;16.07;;;24.50;69.80;;;;;;4928528;29;20485;-76
2023/06/14 06:11:24;;;;;;;18.43;16.90;;;24.50;69.10;;;;;;4934448;29;20876;-76
2023/06/14 06:13:51;;;;;;;17.07;16.20;;;24.80;67.20;;;;;;4934173;29;20493;-76
2023/06/14 06:16:19;;;;;;;17.27;16.37;;;24.70;67.30;;;;;;4933962;29;20453;-77
2023/06/14 06:18:45;;;;;;;17.00;16.00;;;25.00;67.10;;;;;;4933972;29;20453;-74
2023/06/14 06:21:12;;;;;;;17.50;16.70;;;25.30;64.30;;;;;;4934049;29;20453;-75
2023/06/14 06:23:39;;;;;;;17.97;16.87;;;25.80;63.30;;;;;;4933987;29;20477;-75
2023/06/14 06:26:06;;;;;;;18.80;17.30;;;25.90;62.70;;;;;;4933732;29;20453;-75
2023/06/14 06:28:32;;;;;;;17.43;16.47;;;25.50;64.00;;;;;;4933972;29;20457;-77
2023/06/14 06:30:59;;;;;;;18.40;17.40;;;25.60;64.50;;;;;;4932039;29;20678;-80
2023/06/14 06:33:27;;;;;;;17.83;16.93;;;26.50;62.60;;;;;;4933499;29;20798;-79
2023/06/14 06:35:54;;;;;;;16.67;15.90;;;26.20;59.20;;;;;;4932876;29;20500;-78
2023/06/14 06:38:21;;;;;;;17.97;16.77;;;25.90;58.80;;;;;;4933884;29;20951;-79
2023/06/14 06:40:47;;;;;;;17.53;16.53;;;26.60;59.70;;;;;;4933397;29;20956;-78
2023/06/14 06:43:16;;;;;;;17.53;16.50;;;26.60;58.30;;;;;;4933483;29;20932;-78
2023/06/14 06:45:43;;;;;;;18.23;17.30;;;26.40;58.80;;;;;;4933474;29;20458;-78
2023/06/14 06:48:10;;;;;;;18.70;17.53;;;26.30;58.90;;;;;;4933663;29;20452;-78
2023/06/14 06:50:38;;;;;;;17.90;16.73;;;26.20;58.10;;;;;;4933454;29;20509;-78
2023/06/14 06:53:06;;;;;;;17.43;16.40;;;26.70;59.70;;;;;;4933713;29;20458;-78
2023/06/14 06:55:33;;;;;;;17.47;16.67;;;27.80;59.90;;;;;;4933529;29;20493;-78
2023/06/14 06:58:00;;;;;;;19.00;17.90;;;28.40;58.30;;;;;;4933621;29;20526;-78
2023/06/14 07:00:26;;;;;;;18.57;17.57;;;28.60;57.70;;;;;;4933222;29;20461;-79
2023/06/14 07:02:56;;;;;;;18.67;17.77;;;29.00;57.60;;;;;;4933256;29;20982;-79
2023/06/14 07:05:23;;;;;;;18.90;18.00;;;29.50;55.90;;;;;;4933413;29;20552;-79
2023/06/14 07:07:51;;;;;;;17.43;16.20;;;28.30;56.80;;;;;;4933575;29;20993;-77
2023/06/14 07:10:18;;;;;;;17.17;16.17;;;28.20;55.60;;;;;;4933502;29;20461;-78
2023/06/14 07:12:45;;;;;;;16.30;15.50;;;28.30;54.60;;;;;;4933538;29;20462;-78
2023/06/14 07:15:13;;;;;;;17.50;16.43;;;28.40;55.00;;;;;;4933517;29;20513;-78
2023/06/14 07:17:39;;;;;;;16.97;15.33;;;28.50;53.50;;;;;;4933647;29;20461;-78
2023/06/14 07:20:13;;;;;;;18.53;17.40;;;28.60;53.50;;;;;;4936120;29;20471;-78
2023/06/14 07:22:41;;;;;;;16.00;15.00;;;28.70;51.20;;;;;;4937192;29;20540;-79
2023/06/14 07:25:12;;;;;;;16.80;16.00;;;28.50;53.90;;;;;;4936946;29;20548;-77
2023/06/14 07:27:39;;;;;;;17.90;17.03;;;28.60;53.20;;;;;;4937115;29;20465;-77
2023/06/14 07:30:07;;;;;;;17.00;16.20;;;29.30;53.40;;;;;;4936996;29;21039;-77
2023/06/14 07:32:34;;;;;;;17.97;17.10;;;29.40;50.50;;;;;;4936816;29;20457;-77
2023/06/14 07:35:01;;;;;;;17.47;16.77;;;30.50;51.10;;;;;;4936911;29;20485;-76
2023/06/14 07:37:28;;;;;;;17.30;16.30;;;30.10;50.90;;;;;;4936920;29;21160;-77
2023/06/14 07:39:55;;;;;;;17.60;16.80;;;30.30;50.90;;;;;;4936878;29;20457;-77
2023/06/14 07:42:23;;;;;;;18.40;17.20;;;30.10;51.10;;;;;;4936772;29;20461;-77
2023/06/14 07:44:50;;;;;;;17.83;17.03;;;30.40;51.00;;;;;;4936562;29;20460;-77
2023/06/14 07:47:17;;;;;;;19.30;18.10;;;29.60;51.10;;;;;;4936946;29;20464;-77
2023/06/14 07:49:44;;;;;;;17.53;16.73;;;30.00;52.10;;;;;;4936618;29;20757;-77
2023/06/14 07:52:11;;;;;;;18.87;17.87;;;30.00;50.10;;;;;;4936375;29;20847;-77
2023/06/14 07:54:38;;;;;;;18.90;18.00;;;29.50;51.10;;;;;;4936620;29;20844;-78
2023/06/14 07:57:06;;;;;;;19.27;18.33;;;29.60;51.20;;;;;;4936542;29;20472;-78
2023/06/14 07:59:34;;;;;;;19.50;18.60;;;29.90;49.70;;;;;;4936240;29;21022;-75
2023/06/14 08:02:00;;;;;;;18.43;17.53;;;30.90;49.30;;;;;;4936578;29;20465;-79
2023/06/14 08:04:27;;;;;;;18.70;17.37;;;30.40;48.10;;;;;;4936385;29;20954;-78
2023/06/14 08:06:54;;;;;;;19.23;18.03;;;30.50;48.40;;;;;;4936621;29;20461;-78
2023/06/14 08:09:20;;;;;;;19.00;17.97;;;30.90;47.80;;;;;;4936341;29;20472;-77
2023/06/14 08:12:46;;;;;;;18.20;17.40;;;30.10;48.50;;;;;;4935903;29;20974;-78
2023/06/14 08:15:14;;;;;;;18.77;17.77;;;30.50;46.10;;;;;;4917719;29;20493;-78
2023/06/14 08:17:41;;;;;;;18.17;17.47;;;31.20;48.80;;;;;;4935942;29;20453;-78
2023/06/14 08:20:09;;;;;;;19.10;18.20;;;31.50;48.20;;;;;;4935743;29;20800;-78
2023/06/14 08:22:37;;;;;;;19.87;18.87;;;31.40;47.40;;;;;;4935976;29;20457;-78
2023/06/14 08:25:04;;;;;;;17.53;16.73;;;32.30;48.20;;;;;;4936040;29;20446;-76
2023/06/14 08:27:31;;;;;;;17.90;17.00;;;31.20;47.20;;;;;;4935725;29;20466;-76
2023/06/14 08:29:58;;;;;;;17.80;17.00;;;31.80;47.90;;;;;;4935380;29;20453;-76
2023/06/14 08:32:26;;;;;;;18.40;17.60;;;32.30;46.60;;;;;;4935702;29;20508;-76
2023/06/14 08:34:52;;;;;;;18.27;17.43;;;32.30;46.20;;;;;;4935678;29;20497;-77
2023/06/14 08:37:20;;;;;;;17.70;16.77;;;32.20;47.20;;;;;;4935738;29;20464;-76
2023/06/14 08:39:46;;;;;;;18.13;17.43;;;32.30;46.00;;;;;;4935423;29;20476;-76
2023/06/14 08:42:15;;;;;;;18.43;17.53;;;32.00;45.70;;;;;;4935606;29;20484;-76
2023/06/14 18:07:46;;;;;;;14.93;14.20;;;24.70;50.30;;;;;;5823344;23;20749;-75
2023/06/14 18:10:15;;;;;;;14.83;14.07;;;24.80;52.30;;;;;;4929546;29;20459;-74
2023/06/14 18:12:42;;;;;;;14.53;13.73;;;24.50;53.60;;;;;;4921416;29;21044;-74
2023/06/14 18:15:10;;;;;;;14.47;13.73;;;24.60;53.10;;;;;;4925194;29;20891;-75
2023/06/14 18:17:37;;;;;;;16.27;15.00;;;24.50;52.90;;;;;;4918806;29;21016;-74
2023/06/14 18:20:04;;;;;;;15.17;14.00;;;24.50;54.80;;;;;;4922775;29;20461;-75
2023/06/14 18:22:31;;;;;;;15.77;14.90;;;24.30;52.90;;;;;;4922729;29;20483;-74
2023/06/14 18:24:59;;;;;;;15.00;14.10;;;24.20;53.80;;;;;;4923534;29;20481;-75
2023/06/14 18:27:26;;;;;;;15.33;14.53;;;24.10;53.30;;;;;;4924612;29;20466;-74
2023/06/14 18:29:53;;;;;;;15.53;14.60;;;24.10;52.90;;;;;;4923204;29;20455;-75
2023/06/14 18:32:20;;;;;;;13.30;12.70;;;24.10;53.10;;;;;;4923023;29;20461;-74
2023/06/14 18:34:46;;;;;;;15.00;14.30;;;24.10;53.80;;;;;;4924465;29;20489;-74
2023/06/14 18:37:13;;;;;;;14.60;13.80;;;23.90;53.50;;;;;;4923089;29;20454;-76
2023/06/14 18:39:40;;;;;;;16.07;14.87;;;23.90;54.10;;;;;;4923479;29;20480;-75
2023/06/14 18:42:08;;;;;;;15.23;14.27;;;23.80;54.50;;;;;;4924548;29;20805;-75
2023/06/14 18:44:35;;;;;;;14.70;14.00;;;23.80;55.10;;;;;;4923305;29;20442;-73
2023/06/14 18:47:02;;;;;;;13.80;13.20;;;23.60;54.60;;;;;;4923099;29;20464;-73
2023/06/14 18:49:28;;;;;;;14.50;13.70;;;23.60;55.40;;;;;;4924723;29;20504;-75
2023/06/14 18:51:55;;;;;;;14.17;13.23;;;23.50;55.50;;;;;;4923434;29;20952;-74
2023/06/14 18:54:21;;;;;;;14.57;13.67;;;23.40;55.60;;;;;;4923102;29;20841;-75
2023/06/14 18:56:48;;;;;;;14.53;13.80;;;23.50;55.30;;;;;;4924401;29;20504;-74
2023/06/14 18:59:16;;;;;;;13.70;13.10;;;23.40;55.50;;;;;;4923415;29;20454;-75
2023/06/14 19:01:43;;;;;;;15.63;14.40;;;23.10;54.70;;;;;;4922836;29;20453;-76
2023/06/14 19:04:10;;;;;;;14.50;13.80;;;23.10;53.50;;;;;;4922585;29;20441;-75
2023/06/14 19:06:37;;;;;;;15.27;14.57;;;23.00;53.60;;;;;;4923449;29;20488;-75
2023/06/14 19:09:04;;;;;;;14.10;13.33;;;22.80;53.60;;;;;;4924158;29;20490;-74
2023/06/14 19:11:31;;;;;;;16.20;14.97;;;22.70;53.60;;;;;;4925018;29;20526;-76
2023/06/14 19:13:58;;;;;;;14.67;13.77;;;22.70;53.90;;;;;;4925027;29;20455;-75
2023/06/14 19:16:26;;;;;;;14.53;13.83;;;22.70;53.90;;;;;;4930510;29;20614;-74
2023/06/14 19:18:52;;;;;;;14.17;13.57;;;22.70;54.10;;;;;;4929153;29;20450;-75
2023/06/14 19:21:19;;;;;;;14.70;14.10;;;22.50;54.20;;;;;;4929095;29;21136;-74
2023/06/14 19:23:46;;;;;;;14.87;13.90;;;22.50;54.60;;;;;;4930480;29;20445;-74
2023/06/14 19:26:12;;;;;;;14.77;14.13;;;22.40;54.70;;;;;;4929146;29;20449;-74
2023/06/14 19:28:39;;;;;;;14.20;13.50;;;22.30;54.80;;;;;;4929273;29;20500;-75
2023/06/14 19:31:06;;;;;;;13.50;12.80;;;22.30;55.10;;;;;;4930549;29;20449;-75
2023/06/14 19:33:34;;;;;;;14.60;13.90;;;22.30;55.20;;;;;;4928962;29;20462;-75
2023/06/14 19:36:00;;;;;;;14.60;13.87;;;22.20;55.20;;;;;;4929071;29;20491;-74
2023/06/14 19:38:31;;;;;;;14.40;13.60;;;22.20;55.40;;;;;;4930333;29;20504;-75
2023/06/14 19:40:57;;;;;;;14.37;13.63;;;22.10;55.60;;;;;;4929532;29;20450;-74
2023/06/14 19:43:24;;;;;;;14.97;13.87;;;22.00;55.80;;;;;;4928653;29;20449;-75
2023/06/14 19:45:51;;;;;;;14.40;13.60;;;21.90;56.00;;;;;;4928523;29;20454;-74
2023/06/14 19:48:18;;;;;;;14.50;13.63;;;21.90;56.20;;;;;;4929361;29;20813;-73
2023/06/14 19:50:46;;;;;;;14.20;13.57;;;21.80;56.50;;;;;;4930515;29;20449;-74
2023/06/14 19:53:12;;;;;;;13.80;13.10;;;21.80;56.70;;;;;;4930223;29;20453;-74
2023/06/14 19:55:39;;;;;;;13.03;12.53;;;21.70;56.60;;;;;;4929718;29;21004;-74
2023/06/14 19:58:06;;;;;;;14.00;13.40;;;21.70;56.80;;;;;;4928490;29;20459;-73
2023/06/14 20:00:33;;;;;;;13.60;12.90;;;21.70;57.00;;;;;;4929972;29;20496;-74
2023/06/14 20:03:00;;;;;;;14.00;13.30;;;21.60;56.90;;;;;;4929732;29;20473;-75
2023/06/14 20:05:30;;;;;;;14.03;13.23;;;21.60;56.90;;;;;;4928526;29;20458;-75
2023/06/14 20:07:58;;;;;;;13.87;13.17;;;21.50;57.10;;;;;;4927535;29;20481;-74
2023/06/14 20:10:25;;;;;;;13.60;12.90;;;21.60;57.30;;;;;;4930358;29;20458;-74
2023/06/14 20:12:51;;;;;;;13.47;12.77;;;21.50;57.30;;;;;;4928614;29;20458;-75
2023/06/14 20:15:18;;;;;;;13.83;13.13;;;21.50;57.20;;;;;;4929123;29;20489;-74
2023/06/14 20:17:45;;;;;;;13.60;12.90;;;21.50;57.40;;;;;;4927683;29;20461;-75
2023/06/14 20:20:12;;;;;;;15.43;13.87;;;21.40;57.60;;;;;;4929119;29;20490;-75
2023/06/14 20:22:38;;;;;;;14.67;13.83;;;21.30;57.60;;;;;;4929003;29;20453;-74
2023/06/14 20:25:08;;;;;;;14.13;13.33;;;21.30;57.90;;;;;;4929580;29;20450;-74
2023/06/14 20:27:35;;;;;;;14.30;13.50;;;21.30;57.70;;;;;;4926055;29;20695;-76
2023/06/14 20:30:02;;;;;;;14.47;13.57;;;21.40;57.60;;;;;;4925297;29;20459;-74
2023/06/14 20:32:29;;;;;;;13.60;12.73;;;21.50;57.40;;;;;;4927047;29;20548;-74
2023/06/14 20:34:56;;;;;;;13.43;12.83;;;21.50;56.80;;;;;;4926552;29;20789;-73
2023/06/14 20:37:22;;;;;;;13.80;13.20;;;21.60;57.00;;;;;;4925021;29;20443;-74
2023/06/14 20:39:51;;;;;;;14.43;13.40;;;21.60;57.00;;;;;;4926778;29;20453;-75
2023/06/14 20:42:19;;;;;;;14.90;14.20;;;21.60;57.10;;;;;;4926474;29;20446;-75
2023/06/14 20:44:48;;;;;;;13.70;13.00;;;21.50;57.30;;;;;;4925047;29;20461;-75
2023/06/14 20:47:14;;;;;;;14.33;13.53;;;21.50;57.10;;;;;;4926118;29;20445;-75
2023/06/14 20:49:42;;;;;;;13.63;12.83;;;21.50;57.20;;;;;;4926976;29;20461;-75
2023/06/14 20:52:09;;;;;;;12.80;12.20;;;21.50;57.30;;;;;;4925351;29;20451;-74
2023/06/14 20:54:36;;;;;;;13.80;13.00;;;21.50;56.90;;;;;;4925572;29;20449;-73
2023/06/14 20:57:05;;;;;;;14.00;13.30;;;21.60;57.00;;;;;;4926592;29;20580;-73
2023/06/14 20:59:33;;;;;;;13.60;12.80;;;21.50;57.20;;;;;;4925247;29;20481;-75
2023/06/14 21:01:59;;;;;;;14.57;13.73;;;21.40;57.40;;;;;;4925094;29;20473;-75
2023/06/14 21:04:26;;;;;;;13.87;12.80;;;21.40;58.00;;;;;;4926669;29;20966;-74
2023/06/14 21:06:53;;;;;;;13.10;12.37;;;21.30;57.60;;;;;;4925184;29;20522;-74
2023/06/14 21:09:20;;;;;;;13.63;12.70;;;21.20;57.90;;;;;;4924808;29;20481;-74
2023/06/14 21:11:46;;;;;;;13.40;12.67;;;21.20;58.90;;;;;;4926370;29;20532;-74
2023/06/14 21:14:14;;;;;;;13.70;13.00;;;21.20;59.60;;;;;;4925350;29;20461;-74
2023/06/14 21:16:42;;;;;;;14.37;13.63;;;21.10;61.70;;;;;;4924708;29;20801;-73
2023/06/14 21:19:08;;;;;;;15.17;13.83;;;21.00;64.40;;;;;;4926296;29;20446;-73
2023/06/14 21:21:35;;;;;;;15.10;14.00;;;21.00;66.10;;;;;;4925275;29;20454;-74
2023/06/14 21:24:01;;;;;;;15.87;14.73;;;20.90;67.40;;;;;;4924243;29;20457;-73
2023/06/14 21:26:28;;;;;;;15.77;14.70;;;20.80;69.70;;;;;;4924496;29;20450;-73
2023/06/14 21:28:55;;;;;;;15.03;14.13;;;20.60;70.50;;;;;;4925487;29;20521;-73
2023/06/14 21:31:21;;;;;;;16.47;15.30;;;20.60;73.10;;;;;;4926028;29;20957;-74
2023/06/14 21:33:49;;;;;;;15.20;14.30;;;20.50;72.40;;;;;;4924215;29;20470;-73
2023/06/14 21:36:16;;;;;;;14.83;14.03;;;20.50;70.30;;;;;;4924699;29;20572;-74
2023/06/14 21:38:43;;;;;;;15.50;14.60;;;20.50;70.80;;;;;;4924820;29;20840;-73
2023/06/14 21:41:09;;;;;;;14.27;13.57;;;20.50;69.80;;;;;;4924386;29;20917;-73
2023/06/14 21:43:36;;;;;;;15.87;14.87;;;20.50;69.40;;;;;;4924615;29;20542;-74
2023/06/14 21:46:03;;;;;;;15.20;14.03;;;20.40;67.90;;;;;;4925651;29;20552;-74
2023/06/14 21:48:30;;;;;;;14.40;13.50;;;20.40;68.00;;;;;;4924288;29;20449;-76
2023/06/14 21:50:58;;;;;;;15.83;14.83;;;20.40;68.40;;;;;;4924641;29;20446;-74
2023/06/14 21:53:27;;;;;;;13.53;12.83;;;20.30;68.90;;;;;;4925820;29;20541;-73
2023/06/14 21:55:54;;;;;;;14.63;13.83;;;20.10;71.00;;;;;;4924662;29;20482;-73